.
WxDataArchive / Data Records for 2010-10-22
2010-10-21 October 2010 2010-10-23

Data Records for Friday, 22 October 2010

Time	Temp	Chill	HIndex	Humid	Dewpt	 Wind 	HiWind	WindDir	Rain 	Barom 
-----	----	-----	------	-----	-----	------	------	-------	-----	----- 
00:00	34.3	34.3	34.3	80	28.8	0	0	---	0.00	30.047 
00:05	34.1	34.1	34.1	80	28.6	0	0	---	0.00	30.047 
00:10	34.0	34.0	34.0	81	28.8	0	0	---	0.00	30.047 
00:15	34.0	34.0	34.0	81	28.8	0	0	---	0.00	30.047 
00:20	33.8	33.8	33.8	81	28.6	0	0	---	0.00	30.047 
00:25	33.7	33.7	33.7	81	28.5	0	0	---	0.00	30.047 
00:30	33.5	33.5	33.5	82	28.6	0	0	---	0.00	30.049 
00:35	33.5	33.5	33.5	82	28.6	0	0	---	0.00	30.049 
00:40	33.4	33.4	33.4	83	28.8	0	0	---	0.00	30.049 
00:45	33.2	33.2	33.2	83	28.6	0	0	---	0.00	30.055 
00:50	33.1	33.1	33.1	83	28.5	0	0	---	0.00	30.055 
00:55	32.9	32.9	32.9	84	28.6	0	0	---	0.00	30.055 
01:00	32.9	32.9	32.9	84	28.6	0	0	---	0.00	30.054 
01:05	32.8	32.8	32.8	84	28.5	0	0	---	0.00	30.054 
01:10	32.8	32.8	32.8	85	28.8	0	0	---	0.00	30.054 
01:15	32.8	32.8	32.8	85	28.8	0	0	---	0.00	30.054 
01:20	32.7	32.7	32.7	85	28.7	0	0	---	0.00	30.054 
01:25	32.5	32.5	32.5	85	28.5	0	0	---	0.00	30.054 
01:30	32.5	32.5	32.5	85	28.5	0	0	---	0.00	30.056 
01:35	32.4	32.4	32.4	86	28.7	0	0	---	0.00	30.056 
01:40	32.4	32.4	32.4	86	28.7	0	0	---	0.00	30.056 
01:45	32.2	32.2	32.2	86	28.5	0	0	---	0.00	30.059 
01:50	32.1	32.1	32.1	86	28.4	0	0	---	0.00	30.059 
01:55	32.1	32.1	32.1	86	28.4	0	0	---	0.00	30.059 
02:00	31.9	31.9	31.9	86	28.2	0	0	---	0.00	30.067 
02:05	31.9	31.9	31.9	86	28.2	0	0	---	0.00	30.067 
02:10	31.8	31.8	31.8	87	28.4	0	0	---	0.00	30.067 
02:15	31.8	31.8	31.8	87	28.4	0	0	---	0.00	30.072 
02:20	31.6	31.6	31.6	87	28.2	0	0	---	0.00	30.072 
02:25	31.5	31.5	31.5	87	28.1	0	0	---	0.00	30.072 
02:30	31.5	31.5	31.5	87	28.1	0	0	---	0.00	30.075 
02:35	31.5	31.5	31.5	87	28.1	0	0	---	0.00	30.075 
02:40	31.3	31.3	31.3	88	28.2	0	0	---	0.00	30.075 
02:45	31.2	31.2	31.2	88	28.1	0	0	---	0.00	30.080 
02:50	31.2	31.2	31.2	88	28.1	0	0	---	0.00	30.080 
02:55	31.2	31.2	31.2	88	28.1	0	0	---	0.00	30.080 
03:00	31.0	31.0	31.0	88	27.9	0	0	---	0.00	30.084 
03:05	31.0	31.0	31.0	88	27.9	0	0	---	0.00	30.084 
03:10	30.9	30.9	30.9	88	27.8	0	0	---	0.00	30.084 
03:15	30.7	30.7	30.7	88	27.6	0	0	---	0.00	30.081 
03:20	30.7	30.7	30.7	88	27.6	0	0	---	0.00	30.081 
03:25	30.7	30.7	30.7	88	27.6	0	0	---	0.00	30.081 
03:30	30.7	30.7	30.7	89	27.8	0	0	---	0.00	30.083 
03:35	30.6	30.6	30.6	89	27.8	0	0	---	0.00	30.083 
03:40	30.6	30.6	30.6	89	27.8	0	0	---	0.00	30.083 
03:45	30.4	30.4	30.4	89	27.6	0	0	---	0.00	30.086 
03:50	30.4	30.4	30.4	89	27.6	0	0	---	0.00	30.086 
03:55	30.3	30.3	30.3	89	27.5	0	0	---	0.00	30.086 
04:00	30.3	30.3	30.3	89	27.5	0	0	---	0.00	30.085 
04:05	30.1	30.1	30.1	89	27.3	0	0	---	0.00	30.085 
04:10	30.1	30.1	30.1	89	27.3	0	0	---	0.00	30.085 
04:15	30.1	30.1	30.1	89	27.3	0	0	---	0.00	30.088 
04:20	30.0	30.0	30.0	90	27.4	0	0	---	0.00	30.088 
04:25	30.0	30.0	30.0	90	27.4	0	0	---	0.00	30.088 
04:30	30.0	30.0	30.0	90	27.4	0	0	---	0.00	30.089 
04:35	30.0	30.0	30.0	90	27.4	0	0	---	0.00	30.089 
04:40	30.0	30.0	30.0	90	27.4	0	0	---	0.00	30.089 
04:45	30.0	30.0	30.0	90	27.4	0	0	---	0.00	30.090 
04:50	30.0	30.0	30.0	90	27.4	0	0	---	0.00	30.090 
04:55	30.0	30.0	30.0	90	27.4	0	0	---	0.00	30.090 
05:00	29.8	29.8	29.8	90	27.2	0	0	---	0.00	30.100 
05:05	29.8	29.8	29.8	90	27.2	0	0	---	0.00	30.100 
05:10	29.7	29.7	29.7	90	27.1	0	0	---	0.00	30.100 
05:15	29.5	29.5	29.5	90	26.9	0	0	---	0.00	30.106 
05:20	29.5	29.5	29.5	90	26.9	0	0	---	0.00	30.106 
05:25	29.5	29.5	29.5	91	27.2	0	0	---	0.00	30.106 
05:30	29.5	29.5	29.5	91	27.2	0	0	---	0.00	30.110 
05:35	29.4	29.4	29.4	91	27.1	0	0	---	0.00	30.110 
05:40	29.4	29.4	29.4	91	27.1	0	0	---	0.00	30.110 
05:45	29.3	29.3	29.3	91	27.0	0	0	---	0.00	30.115 
05:50	29.3	29.3	29.3	91	27.0	0	0	---	0.00	30.115 
05:55	29.3	29.3	29.3	91	27.0	0	0	---	0.00	30.115 
06:00	29.3	29.3	29.3	91	27.0	0	0	---	0.00	30.119 
06:05	29.3	29.3	29.3	91	27.0	0	0	---	0.00	30.119 
06:10	29.3	29.3	29.3	91	27.0	0	0	---	0.00	30.119 
06:15	29.3	29.3	29.3	91	27.0	0	0	---	0.00	30.125 
06:20	29.1	29.1	29.1	91	26.8	0	0	---	0.00	30.125 
06:25	29.1	29.1	29.1	91	26.8	0	0	---	0.00	30.125 
06:30	29.1	29.1	29.1	91	26.8	0	0	---	0.00	30.129 
06:35	29.1	29.1	29.1	91	26.8	0	0	---	0.00	30.129 
06:40	29.1	29.1	29.1	91	26.8	0	0	---	0.00	30.129 
06:45	29.1	29.1	29.1	91	26.8	0	0	---	0.00	30.135 
06:50	29.1	29.1	29.1	91	26.8	0	0	---	0.00	30.135 
06:55	29.0	29.0	29.0	91	26.7	0	0	---	0.00	30.135 
07:00	28.8	28.8	28.8	91	26.5	0	0	---	0.00	30.139 
07:05	28.8	28.8	28.8	91	26.5	0	0	---	0.00	30.139 
07:10	28.7	28.7	28.7	91	26.4	0	0	---	0.00	30.139 
07:15	28.7	28.7	28.7	91	26.4	0	0	---	0.00	30.143 
07:20	28.7	28.7	28.7	91	26.4	0	0	---	0.00	30.143 
07:25	28.7	28.7	28.7	91	26.4	0	0	---	0.00	30.143 
07:30	28.7	28.7	28.7	92	26.7	0	0	---	0.00	30.151 
07:35	28.7	28.7	28.7	92	26.7	0	0	---	0.00	30.151 
07:40	28.7	28.7	28.7	92	26.7	0	0	---	0.00	30.151 
07:45	28.5	28.5	28.5	92	26.5	0	0	---	0.00	30.155 
07:50	28.5	28.5	28.5	92	26.5	0	0	---	0.00	30.155 
07:55	28.5	28.5	28.5	92	26.5	0	0	---	0.00	30.155 
08:00	28.5	28.5	28.5	92	26.5	0	0	---	0.00	30.161 
08:05	28.5	28.5	28.5	92	26.5	0	0	---	0.00	30.161 
08:10	28.4	28.4	28.4	92	26.4	0	0	---	0.00	30.161 
08:15	28.7	28.7	28.7	92	26.7	0	0	---	0.00	30.170 
08:20	28.8	28.8	28.8	92	26.8	0	0	---	0.00	30.170 
08:25	29.0	29.0	29.0	92	27.0	0	0	---	0.00	30.170 
08:30	29.3	29.3	29.3	92	27.3	0	0	---	0.00	30.175 
08:35	29.4	29.4	29.4	92	27.4	0	0	---	0.00	30.175 
08:40	29.4	29.4	29.4	92	27.4	0	0	---	0.00	30.175 
08:45	29.7	29.7	29.7	93	27.9	0	0	---	0.00	30.180 
08:50	29.8	29.8	29.8	93	28.0	0	0	---	0.00	30.180 
08:55	30.1	30.1	30.1	93	28.3	0	0	---	0.00	30.180 
09:00	30.6	30.6	30.6	93	28.8	0	0	---	0.00	30.185 
09:05	30.9	30.9	30.9	93	29.1	0	0	---	0.00	30.185 
09:10	31.5	31.5	31.5	93	29.7	0	0	---	0.00	30.185 
09:15	31.8	31.8	31.8	93	30.0	0	0	---	0.00	30.200 
09:20	32.4	32.4	32.4	93	30.6	0	0	---	0.00	30.200 
09:25	32.8	32.8	32.8	93	31.0	0	0	---	0.00	30.200 
09:30	33.5	33.5	33.5	94	32.0	0	0	---	0.00	30.204 
09:35	34.6	34.6	34.6	94	33.1	0	0	---	0.00	30.204 
09:40	35.3	35.3	35.3	94	33.7	0	1	315	0.00	30.204 
09:45	36.6	36.6	36.6	94	35.0	0	1	315	0.00	30.207 
09:50	38.2	38.2	38.2	90	35.5	0	1	315	0.00	30.207 
09:55	39.6	39.6	39.6	84	35.2	0	1	315	0.00	30.207 
10:00	40.8	40.8	40.8	79	34.8	0	1	315	0.00	30.204 
10:05	41.8	41.8	41.8	76	34.8	0	1	315	0.00	30.204 
10:10	42.5	42.5	42.5	73	34.5	0	0	---	0.00	30.204 
10:15	43.2	43.2	43.2	70	34.1	0	0	---	0.00	30.203 
10:20	44.1	44.1	44.1	68	34.2	0	1	315	0.00	30.203 
10:25	45.1	45.1	45.1	65	34.0	0	1	315	0.00	30.203 
10:30	46.1	46.1	46.1	63	34.2	0	1	315	0.00	30.198 
10:35	47.1	47.1	47.1	60	33.9	0	1	315	0.00	30.198 
10:40	48.0	48.0	48.0	60	34.8	0	2	315	0.00	30.198 
10:45	48.5	48.5	48.5	57	34.0	0	2	315	0.00	30.202 
10:50	48.5	48.5	48.5	58	34.4	1	2	315	0.00	30.202 
10:55	48.6	48.6	48.6	57	34.1	0	3	135	0.00	30.202 
11:00	48.8	48.8	48.8	57	34.3	0	2	135	0.00	30.204 
11:05	49.4	49.4	49.4	56	34.4	0	3	135	0.00	30.204 
11:10	49.8	49.8	49.8	55	34.3	1	3	135	0.00	30.204 
11:15	50.4	50.4	50.4	54	34.4	0	2	135	0.00	30.204 
11:20	51.0	51.0	51.0	53	34.5	0	2	135	0.00	30.204 
11:25	51.4	51.4	51.4	52	34.4	0	2	135	0.00	30.204 
11:30	51.9	51.9	51.9	52	34.8	0	1	135	0.00	30.200 
11:35	52.5	52.5	52.5	50	34.4	0	2	135	0.00	30.200 
11:40	52.8	52.8	52.8	48	33.7	0	3	135	0.00	30.200 
11:45	53.2	53.2	53.2	48	34.0	0	2	135	0.00	30.202 
11:50	53.3	53.3	53.3	47	33.6	0	2	135	0.00	30.202 
11:55	53.6	53.6	53.6	46	33.3	0	3	135	0.00	30.202 
12:00	54.2	54.2	54.2	46	33.9	0	2	225	0.00	30.200 
12:05	54.5	54.5	54.5	46	34.1	1	3	68	0.00	30.200 
12:10	54.7	54.7	54.7	47	34.9	0	4	90	0.00	30.200 
12:15	54.8	54.8	54.8	45	33.9	0	3	90	0.00	30.195 
12:20	55.0	55.0	55.0	45	34.1	0	2	270	0.00	30.195 
12:25	55.3	55.3	55.3	46	34.9	0	2	270	0.00	30.195 
12:30	55.4	55.4	55.4	44	33.9	1	3	90	0.00	30.190 
12:35	55.6	55.6	55.6	44	34.0	1	5	90	0.00	30.190 
12:40	55.6	55.6	55.6	43	33.5	1	4	225	0.00	30.190 
12:45	55.9	55.9	55.9	43	33.7	1	3	248	0.00	30.186 
12:50	56.0	56.0	56.0	43	33.8	1	2	292	0.00	30.186 
12:55	56.3	56.3	56.3	42	33.5	1	4	292	0.00	30.186 
13:00	56.3	56.3	56.3	42	33.5	1	5	225	0.00	30.185 
13:05	56.5	56.5	56.5	41	33.1	1	3	225	0.00	30.185 
13:10	56.6	56.6	56.6	40	32.6	2	7	248	0.00	30.185 
13:15	56.7	56.7	56.7	41	33.3	1	5	248	0.00	30.182 
13:20	56.6	56.6	56.6	41	33.2	1	4	315	0.00	30.182 
13:25	57.0	57.0	57.0	41	33.5	1	5	315	0.00	30.182 
13:30	57.2	57.2	57.2	39	32.5	2	5	248	0.00	30.179 
13:35	57.3	57.3	57.3	40	33.2	1	5	248	0.00	30.179 
13:40	57.3	57.3	57.3	38	31.9	2	6	248	0.00	30.179 
13:45	57.5	57.5	57.5	37	31.4	1	4	248	0.00	30.173 
13:50	57.6	57.6	57.6	38	32.2	1	2	248	0.00	30.173 
13:55	58.0	58.0	58.0	38	32.5	1	3	270	0.00	30.173 
14:00	58.1	58.1	58.1	38	32.6	1	3	248	0.00	30.161 
14:05	58.1	58.1	58.1	35	30.6	2	4	248	0.00	30.161 
14:10	58.3	58.3	58.3	35	30.8	1	4	315	0.00	30.161 
14:15	58.6	58.6	58.6	35	31.0	1	3	248	0.00	30.159 
14:20	58.7	58.7	58.7	35	31.1	1	4	292	0.00	30.159 
14:25	58.7	58.7	58.7	35	31.1	1	3	248	0.00	30.159 
14:30	58.9	58.9	58.9	35	31.3	1	4	248	0.00	30.151 
14:35	59.0	59.0	59.0	35	31.4	1	7	248	0.00	30.151 
14:40	59.3	59.3	59.3	34	30.9	1	4	248	0.00	30.151 
14:45	59.6	59.6	59.6	32	29.7	2	5	248	0.00	30.149 
14:50	59.6	59.6	59.6	34	31.2	1	4	90	0.00	30.149 
14:55	59.6	59.6	59.6	33	30.5	0	2	90	0.00	30.149 
15:00	59.8	59.8	59.8	34	31.4	1	3	248	0.00	30.142 
15:05	60.1	60.1	60.1	33	30.9	1	4	270	0.00	30.142 
15:10	60.4	60.4	60.4	33	31.2	1	3	248	0.00	30.142 
15:15	60.4	60.4	60.4	32	30.4	1	3	248	0.00	30.138 
15:20	60.5	60.5	60.5	32	30.5	1	3	270	0.00	30.138 
15:25	60.7	60.7	60.7	32	30.7	2	7	248	0.00	30.138 
15:30	60.9	60.9	60.9	30	29.3	1	5	270	0.00	30.134 
15:35	60.9	60.9	60.9	31	30.1	1	6	248	0.00	30.134 
15:40	61.0	61.0	61.0	31	30.2	1	5	248	0.00	30.134 
15:45	61.0	61.0	61.0	31	30.2	0	2	248	0.00	30.126 
15:50	61.3	61.3	61.3	31	30.4	1	5	248	0.00	30.126 
15:55	61.8	61.8	61.8	31	30.8	1	3	248	0.00	30.126 
16:00	62.3	62.3	62.3	29	29.6	1	3	248	0.00	30.121 
16:05	62.3	62.3	62.3	28	28.8	1	3	248	0.00	30.121 
16:10	62.1	62.1	62.1	28	28.6	2	3	292	0.00	30.121 
16:15	61.6	61.6	61.6	28	28.2	1	4	292	0.00	30.120 
16:20	61.6	61.6	61.6	28	28.2	1	3	248	0.00	30.120 
16:25	61.6	61.6	61.6	30	29.9	0	1	248	0.00	30.120 
16:30	61.5	61.5	61.5	28	28.1	0	1	248	0.00	30.119 
16:35	61.6	61.6	61.6	27	27.3	1	3	248	0.00	30.119 
16:40	61.6	61.6	61.6	27	27.3	1	3	248	0.00	30.119 
16:45	61.6	61.6	61.6	28	28.2	0	1	248	0.00	30.122 
16:50	61.8	61.8	61.8	27	27.5	1	3	248	0.00	30.122 
16:55	61.8	61.8	61.8	27	27.5	1	5	248	0.00	30.122 
17:00	61.8	61.8	61.8	28	28.4	1	3	248	0.00	30.123 
17:05	61.8	61.8	61.8	28	28.4	1	3	248	0.00	30.123 
17:10	61.6	61.6	61.6	27	27.3	1	2	248	0.00	30.123 
17:15	61.6	61.6	61.6	27	27.3	0	1	248	0.00	30.117 
17:20	61.5	61.5	61.5	28	28.1	1	4	225	0.00	30.117 
17:25	61.3	61.3	61.3	28	27.9	0	2	225	0.00	30.117 
17:30	61.3	61.3	61.3	28	27.9	1	3	225	0.00	30.114 
17:35	61.3	61.3	61.3	28	27.9	0	3	248	0.00	30.114 
17:40	61.2	61.2	61.2	27	27.0	1	4	248	0.00	30.114 
17:45	61.0	61.0	61.0	27	26.8	0	3	248	0.00	30.112 
17:50	60.9	60.9	60.9	27	26.7	1	4	248	0.00	30.112 
17:55	60.9	60.9	60.9	28	27.6	0	4	248	0.00	30.112 
18:00	60.7	60.7	60.7	27	26.5	0	1	248	0.00	30.114 
18:05	60.4	60.4	60.4	27	26.3	1	3	248	0.00	30.114 
18:10	60.2	60.2	60.2	28	27.0	0	2	248	0.00	30.114 
18:15	60.1	60.1	60.1	28	26.9	0	3	248	0.00	30.113 
18:20	59.8	59.8	59.8	28	26.6	0	2	248	0.00	30.113 
18:25	59.6	59.6	59.6	28	26.5	0	2	248	0.00	30.113 
18:30	59.3	59.3	59.3	27	25.3	0	1	248	0.00	30.113 
18:35	59.0	59.0	59.0	27	25.1	0	1	248	0.00	30.113 
18:40	58.7	58.7	58.7	28	25.7	0	1	248	0.00	30.113 
18:45	58.3	58.3	58.3	29	26.2	0	0	---	0.00	30.114 
18:50	57.6	57.6	57.6	30	26.4	0	0	---	0.00	30.114 
18:55	57.0	57.0	57.0	31	26.7	0	1	248	0.00	30.114 
19:00	56.5	56.5	56.5	33	27.7	0	0	---	0.00	30.119 
19:05	55.9	55.9	55.9	35	28.7	0	0	---	0.00	30.119 
19:10	55.1	55.1	55.1	36	28.6	0	0	---	0.00	30.119 
19:15	54.4	54.4	54.4	36	28.0	0	0	---	0.00	30.124 
19:20	53.8	53.8	53.8	38	28.8	0	0	---	0.00	30.124 
19:25	53.1	53.1	53.1	39	28.8	0	0	---	0.00	30.124 
19:30	52.5	52.5	52.5	39	28.3	0	0	---	0.00	30.128 
19:35	51.9	51.9	51.9	40	28.3	0	0	---	0.00	30.128 
19:40	51.3	51.3	51.3	42	29.0	0	0	---	0.00	30.128 
19:45	50.7	50.7	50.7	42	28.5	0	0	---	0.00	30.141 
19:50	50.2	50.2	50.2	45	29.7	0	0	---	0.00	30.141 
19:55	49.6	49.6	49.6	47	30.2	0	0	---	0.00	30.141 
20:00	48.9	48.9	48.9	48	30.1	0	0	---	0.00	30.137 
20:05	48.5	48.5	48.5	48	29.7	0	0	---	0.00	30.137 
20:10	48.0	48.0	48.0	49	29.8	0	0	---	0.00	30.137 
20:15	47.7	47.7	47.7	50	30.0	0	0	---	0.00	30.140 
20:20	47.4	47.4	47.4	52	30.7	0	0	---	0.00	30.140 
20:25	47.0	47.0	47.0	52	30.3	0	0	---	0.00	30.140 
20:30	46.7	46.7	46.7	53	30.5	0	0	---	0.00	30.133 
20:35	46.4	46.4	46.4	54	30.7	0	0	---	0.00	30.133 
20:40	46.1	46.1	46.1	55	30.8	0	0	---	0.00	30.133 
20:45	46.0	46.0	46.0	55	30.7	0	0	---	0.00	30.135 
20:50	45.8	45.8	45.8	56	31.0	0	0	---	0.00	30.135 
20:55	45.5	45.5	45.5	57	31.2	0	0	---	0.00	30.135 
21:00	45.4	45.4	45.4	58	31.5	0	0	---	0.00	30.123 
21:05	45.1	45.1	45.1	58	31.2	0	0	---	0.00	30.123 
21:10	44.9	44.9	44.9	58	31.0	0	0	---	0.00	30.123 
21:15	44.6	44.6	44.6	58	30.7	0	0	---	0.00	30.115 
21:20	44.5	44.5	44.5	58	30.7	0	0	---	0.00	30.115 
21:25	44.3	44.3	44.3	58	30.5	0	0	---	0.00	30.115 
21:30	44.2	44.2	44.2	59	30.8	0	0	---	0.00	30.127 
21:35	44.2	44.2	44.2	58	30.4	0	0	---	0.00	30.127 
21:40	44.1	44.1	44.1	60	31.1	0	0	---	0.00	30.127 
21:45	43.9	43.9	43.9	60	30.9	0	0	---	0.00	30.125 
21:50	43.8	43.8	43.8	59	30.4	0	0	---	0.00	30.125 
21:55	43.6	43.6	43.6	58	29.8	0	0	---	0.00	30.125 
22:00	43.6	43.6	43.6	59	30.2	0	0	---	0.00	30.121 
22:05	43.6	43.6	43.6	59	30.2	0	0	---	0.00	30.121 
22:10	43.8	43.8	43.8	59	30.4	0	0	---	0.00	30.121 
22:15	43.8	43.8	43.8	59	30.4	0	0	---	0.00	30.122 
22:20	43.9	43.9	43.9	59	30.5	0	0	---	0.00	30.122 
22:25	43.9	43.9	43.9	59	30.5	0	0	---	0.00	30.122 
22:30	44.1	44.1	44.1	58	30.3	0	0	---	0.00	30.122 
22:35	44.2	44.2	44.2	56	29.5	0	0	---	0.00	30.122 
22:40	44.5	44.5	44.5	53	28.4	0	0	---	0.00	30.122 
22:45	44.6	44.6	44.6	53	28.5	0	0	---	0.00	30.118 
22:50	44.9	44.9	44.9	53	28.8	0	0	---	0.00	30.118 
22:55	45.4	45.4	45.4	52	28.8	0	0	---	0.00	30.118 
23:00	45.7	45.7	45.7	51	28.6	0	0	---	0.00	30.119 
23:05	46.1	46.1	46.1	50	28.5	0	0	---	0.00	30.119 
23:10	46.5	46.5	46.5	50	28.9	0	1	248	0.00	30.119 
23:15	46.8	46.8	46.8	49	28.7	0	0	---	0.00	30.110 
23:20	47.0	47.0	47.0	48	28.3	0	0	---	0.00	30.110 
23:25	47.3	47.3	47.3	48	28.6	0	0	---	0.00	30.110 
23:30	47.3	47.3	47.3	47	28.1	0	0	---	0.00	30.109 
23:35	47.3	47.3	47.3	47	28.1	0	0	---	0.00	30.109 
23:40	47.3	47.3	47.3	47	28.1	0	0	---	0.00	30.109 
23:45	47.3	47.3	47.3	47	28.1	0	0	---	0.00	30.102 
23:50	47.1	47.1	47.1	47	27.9	0	0	---	0.00	30.102 
23:55	47.0	47.0	47.0	47	27.8	0	0	---	0.00	30.102 

CoCoRaHS
IN-AL-39
A2 Web Hosting
Creative Commons License
GoDaddy
search engine by freefind advanced

loaded 2018-11-14 04:47:22 • last modified 2010-11-18 10:43:29
Privacy PolicyDisclaimer
• wx.awcolley.com is powered by PmWiki v.2002016 •
• all content (unless otherwise noted) © 2018 A W Colley